sensor_id;sensor_type;location;lat;lon;timestamp;pressure;altitude;pressure_sealevel;temperature;humidity
62402;BME280;48440;51.224;22.506;2023-10-31T00:02:10;98276.63;;;11.98;77.50
62402;BME280;48440;51.224;22.506;2023-10-31T00:04:35;98269.06;;;11.95;77.72
62402;BME280;48440;51.224;22.506;2023-10-31T00:07:01;98270.66;;;11.96;78.43
62402;BME280;48440;51.224;22.506;2023-10-31T00:09:26;98258.53;;;11.88;79.00
62402;BME280;48440;51.224;22.506;2023-10-31T00:11:52;98258.25;;;11.90;79.81
62402;BME280;48440;51.224;22.506;2023-10-31T00:14:17;98245.75;;;11.89;80.16
62402;BME280;48440;51.224;22.506;2023-10-31T00:16:45;98236.78;;;11.88;79.47
62402;BME280;48440;51.224;22.506;2023-10-31T00:19:10;98245.81;;;11.84;79.47
62402;BME280;48440;51.224;22.506;2023-10-31T00:21:36;98237.66;;;11.84;79.27
62402;BME280;48440;51.224;22.506;2023-10-31T00:24:01;98252.09;;;11.79;79.59
62402;BME280;48440;51.224;22.506;2023-10-31T00:26:28;98243.41;;;11.77;80.09
62402;BME280;48440;51.224;22.506;2023-10-31T00:28:53;98236.88;;;11.78;80.13
62402;BME280;48440;51.224;22.506;2023-10-31T00:31:19;98227.38;;;11.76;79.08
62402;BME280;48440;51.224;22.506;2023-10-31T00:33:44;98224.41;;;11.77;79.85
62402;BME280;48440;51.224;22.506;2023-10-31T00:36:10;98212.72;;;11.77;79.70
62402;BME280;48440;51.224;22.506;2023-10-31T00:38:35;98210.50;;;11.79;79.42
62402;BME280;48440;51.224;22.506;2023-10-31T00:41:01;98213.34;;;11.69;79.67
62402;BME280;48440;51.224;22.506;2023-10-31T00:43:26;98212.19;;;11.70;80.11
62402;BME280;48440;51.224;22.506;2023-10-31T00:45:51;98214.91;;;11.70;79.62
62402;BME280;48440;51.224;22.506;2023-10-31T00:48:17;98207.00;;;11.73;80.26
62402;BME280;48440;51.224;22.506;2023-10-31T00:50:43;98211.91;;;11.71;80.53
62402;BME280;48440;51.224;22.506;2023-10-31T00:53:08;98206.47;;;11.71;81.00
62402;BME280;48440;51.224;22.506;2023-10-31T00:55:34;98213.78;;;11.76;81.05
62402;BME280;48440;51.224;22.506;2023-10-31T00:57:59;98210.25;;;11.75;80.47
62402;BME280;48440;51.224;22.506;2023-10-31T01:00:25;98208.09;;;11.77;80.33
62402;BME280;48440;51.224;22.506;2023-10-31T01:02:50;98207.28;;;11.77;79.94
62402;BME280;48440;51.224;22.506;2023-10-31T01:05:16;98195.84;;;11.75;80.12
62402;BME280;48440;51.224;22.506;2023-10-31T01:07:41;98188.78;;;11.74;80.77
62402;BME280;48440;51.224;22.506;2023-10-31T01:10:10;98187.16;;;11.78;80.93
62402;BME280;48440;51.224;22.506;2023-10-31T01:12:36;98183.34;;;11.79;81.06
62402;BME280;48440;51.224;22.506;2023-10-31T01:15:02;98180.56;;;11.84;81.13
62402;BME280;48440;51.224;22.506;2023-10-31T01:17:27;98177.84;;;11.84;81.15
62402;BME280;48440;51.224;22.506;2023-10-31T01:19:53;98178.94;;;11.83;80.87
62402;BME280;48440;51.224;22.506;2023-10-31T01:22:18;98165.66;;;11.81;81.42
62402;BME280;48440;51.224;22.506;2023-10-31T01:24:44;98159.16;;;11.77;81.68
62402;BME280;48440;51.224;22.506;2023-10-31T01:27:09;98152.34;;;11.80;81.84
62402;BME280;48440;51.224;22.506;2023-10-31T01:29:35;98155.91;;;11.75;82.14
62402;BME280;48440;51.224;22.506;2023-10-31T01:32:00;98149.38;;;11.76;82.14
62402;BME280;48440;51.224;22.506;2023-10-31T01:34:25;98149.34;;;11.81;81.80
62402;BME280;48440;51.224;22.506;2023-10-31T01:36:51;98130.03;;;11.83;82.31
62402;BME280;48440;51.224;22.506;2023-10-31T01:39:16;98137.59;;;11.86;82.35
62402;BME280;48440;51.224;22.506;2023-10-31T01:41:42;98129.38;;;11.91;82.50
62402;BME280;48440;51.224;22.506;2023-10-31T01:44:09;98125.00;;;11.95;82.08
62402;BME280;48440;51.224;22.506;2023-10-31T01:46:34;98126.00;;;11.99;82.16
62402;BME280;48440;51.224;22.506;2023-10-31T01:49:00;98123.22;;;12.04;81.43
62402;BME280;48440;51.224;22.506;2023-10-31T01:51:26;98116.91;;;12.09;81.23
62402;BME280;48440;51.224;22.506;2023-10-31T01:53:53;98114.72;;;12.11;81.12
62402;BME280;48440;51.224;22.506;2023-10-31T01:56:23;98107.66;;;12.10;80.79
62402;BME280;48440;51.224;22.506;2023-10-31T01:58:49;98095.44;;;12.07;81.04
62402;BME280;48440;51.224;22.506;2023-10-31T02:01:15;98093.53;;;12.08;80.99
62402;BME280;48440;51.224;22.506;2023-10-31T02:03:41;98090.00;;;12.07;81.17
62402;BME280;48440;51.224;22.506;2023-10-31T02:06:07;98086.75;;;12.05;80.94
62402;BME280;48440;51.224;22.506;2023-10-31T02:08:32;98080.06;;;11.98;81.85
62402;BME280;48440;51.224;22.506;2023-10-31T02:10:58;98077.28;;;12.03;81.36
62402;BME280;48440;51.224;22.506;2023-10-31T02:13:24;98073.41;;;12.09;81.29
62402;BME280;48440;51.224;22.506;2023-10-31T02:15:49;98065.41;;;12.17;80.74
62402;BME280;48440;51.224;22.506;2023-10-31T02:18:15;98062.09;;;12.20;80.56
62402;BME280;48440;51.224;22.506;2023-10-31T02:20:41;98059.56;;;12.24;80.29
62402;BME280;48440;51.224;22.506;2023-10-31T02:23:06;98054.34;;;12.28;80.23
62402;BME280;48440;51.224;22.506;2023-10-31T02:25:32;98051.25;;;12.34;79.56
62402;BME280;48440;51.224;22.506;2023-10-31T02:27:58;98041.19;;;12.35;79.62
62402;BME280;48440;51.224;22.506;2023-10-31T02:30:24;98042.59;;;12.32;79.86
62402;BME280;48440;51.224;22.506;2023-10-31T02:32:50;98036.03;;;12.33;79.91
62402;BME280;48440;51.224;22.506;2023-10-31T02:35:16;98033.53;;;12.37;79.79
62402;BME280;48440;51.224;22.506;2023-10-31T02:37:43;98038.19;;;12.36;79.74
62402;BME280;48440;51.224;22.506;2023-10-31T02:40:09;98033.84;;;12.35;79.62
62402;BME280;48440;51.224;22.506;2023-10-31T02:42:35;98030.31;;;12.35;79.51
62402;BME280;48440;51.224;22.506;2023-10-31T02:45:00;98026.47;;;12.36;79.85
62402;BME280;48440;51.224;22.506;2023-10-31T02:47:26;98023.47;;;12.37;79.77
62402;BME280;48440;51.224;22.506;2023-10-31T02:49:51;98018.03;;;12.37;79.56
62402;BME280;48440;51.224;22.506;2023-10-31T02:52:17;98021.84;;;12.36;79.94
62402;BME280;48440;51.224;22.506;2023-10-31T02:54:42;98012.59;;;12.37;79.48
62402;BME280;48440;51.224;22.506;2023-10-31T02:57:07;98014.28;;;12.33;79.62
62402;BME280;48440;51.224;22.506;2023-10-31T02:59:33;98011.78;;;12.37;79.59
62402;BME280;48440;51.224;22.506;2023-10-31T03:01:58;98016.19;;;12.33;79.75
62402;BME280;48440;51.224;22.506;2023-10-31T03:04:24;98009.06;;;12.37;79.60
62402;BME280;48440;51.224;22.506;2023-10-31T03:06:49;98000.09;;;12.36;79.50
62402;BME280;48440;51.224;22.506;2023-10-31T03:09:15;97998.69;;;12.39;79.56
62402;BME280;48440;51.224;22.506;2023-10-31T03:11:40;98002.81;;;12.36;79.27
62402;BME280;48440;51.224;22.506;2023-10-31T03:14:06;97992.44;;;12.38;78.88
62402;BME280;48440;51.224;22.506;2023-10-31T03:16:31;97988.63;;;12.39;78.80
62402;BME280;48440;51.224;22.506;2023-10-31T03:18:58;97983.19;;;12.39;78.83
62402;BME280;48440;51.224;22.506;2023-10-31T03:21:23;97988.31;;;12.41;78.53
62402;BME280;48440;51.224;22.506;2023-10-31T03:23:50;97977.44;;;12.41;78.80
62402;BME280;48440;51.224;22.506;2023-10-31T03:26:16;97974.19;;;12.39;78.29
62402;BME280;48440;51.224;22.506;2023-10-31T03:28:42;97978.03;;;12.38;78.50
62402;BME280;48440;51.224;22.506;2023-10-31T03:31:09;97979.66;;;12.39;78.29
62402;BME280;48440;51.224;22.506;2023-10-31T03:33:35;97969.88;;;12.38;77.98
62402;BME280;48440;51.224;22.506;2023-10-31T03:36:01;97967.38;;;12.41;77.96
62402;BME280;48440;51.224;22.506;2023-10-31T03:38:26;97968.97;;;12.42;77.94
62402;BME280;48440;51.224;22.506;2023-10-31T03:40:53;97960.22;;;12.45;77.59
62402;BME280;48440;51.224;22.506;2023-10-31T03:43:18;97945.50;;;12.46;77.30
62402;BME280;48440;51.224;22.506;2023-10-31T03:45:46;97950.03;;;12.51;76.70
62402;BME280;48440;51.224;22.506;2023-10-31T03:48:12;97946.13;;;12.57;76.12
62402;BME280;48440;51.224;22.506;2023-10-31T03:50:37;97938.69;;;12.63;75.72
62402;BME280;48440;51.224;22.506;2023-10-31T03:53:03;97929.91;;;12.66;75.62
62402;BME280;48440;51.224;22.506;2023-10-31T03:55:28;97921.97;;;12.69;75.12
62402;BME280;48440;51.224;22.506;2023-10-31T03:57:55;97928.28;;;12.78;74.37
62402;BME280;48440;51.224;22.506;2023-10-31T04:00:20;97928.50;;;12.82;74.05
62402;BME280;48440;51.224;22.506;2023-10-31T04:02:46;97925.09;;;12.90;73.38
62402;BME280;48440;51.224;22.506;2023-10-31T04:05:11;97920.34;;;12.96;73.24
62402;BME280;48440;51.224;22.506;2023-10-31T04:07:37;97912.25;;;13.04;72.07
62402;BME280;48440;51.224;22.506;2023-10-31T04:10:03;97906.59;;;13.14;71.84
62402;BME280;48440;51.224;22.506;2023-10-31T04:12:29;97907.66;;;13.18;71.39
62402;BME280;48440;51.224;22.506;2023-10-31T04:14:54;97898.25;;;13.24;70.56
62402;BME280;48440;51.224;22.506;2023-10-31T04:17:20;97902.16;;;13.32;69.95
62402;BME280;48440;51.224;22.506;2023-10-31T04:19:46;97905.28;;;13.39;69.53
62402;BME280;48440;51.224;22.506;2023-10-31T04:22:11;97890.75;;;13.44;68.95
62402;BME280;48440;51.224;22.506;2023-10-31T04:24:37;97896.91;;;13.49;68.82
62402;BME280;48440;51.224;22.506;2023-10-31T04:27:02;97886.16;;;13.53;68.44
62402;BME280;48440;51.224;22.506;2023-10-31T04:29:28;97896.13;;;13.57;68.30
62402;BME280;48440;51.224;22.506;2023-10-31T04:31:53;97882.22;;;13.59;67.70
62402;BME280;48440;51.224;22.506;2023-10-31T04:34:19;97890.06;;;13.61;67.68
62402;BME280;48440;51.224;22.506;2023-10-31T04:36:44;97882.72;;;13.61;67.55
62402;BME280;48440;51.224;22.506;2023-10-31T04:39:09;97886.25;;;13.62;67.93
62402;BME280;48440;51.224;22.506;2023-10-31T04:41:35;97877.25;;;13.61;67.48
62402;BME280;48440;51.224;22.506;2023-10-31T04:44:00;97872.91;;;13.60;67.00
62402;BME280;48440;51.224;22.506;2023-10-31T04:46:26;97865.25;;;13.62;66.95
62402;BME280;48440;51.224;22.506;2023-10-31T04:48:54;97865.13;;;13.67;66.86
62402;BME280;48440;51.224;22.506;2023-10-31T04:51:20;97859.06;;;13.70;66.33
62402;BME280;48440;51.224;22.506;2023-10-31T04:53:45;97851.38;;;13.72;66.17
62402;BME280;48440;51.224;22.506;2023-10-31T04:56:15;97848.50;;;13.77;65.78
62402;BME280;48440;51.224;22.506;2023-10-31T04:58:44;97847.72;;;13.77;65.81
62402;BME280;48440;51.224;22.506;2023-10-31T05:01:11;97851.22;;;13.77;65.52
62402;BME280;48440;51.224;22.506;2023-10-31T05:03:37;97851.56;;;13.76;65.61
62402;BME280;48440;51.224;22.506;2023-10-31T05:06:03;97846.59;;;13.78;65.46
62402;BME280;48440;51.224;22.506;2023-10-31T05:08:29;97832.16;;;13.77;65.47
62402;BME280;48440;51.224;22.506;2023-10-31T05:10:55;97832.94;;;13.78;64.94
62402;BME280;48440;51.224;22.506;2023-10-31T05:13:20;97834.09;;;13.77;65.09
62402;BME280;48440;51.224;22.506;2023-10-31T05:15:45;97834.41;;;13.75;65.41
62402;BME280;48440;51.224;22.506;2023-10-31T05:18:11;97822.19;;;13.73;65.20
62402;BME280;48440;51.224;22.506;2023-10-31T05:20:37;97818.50;;;13.77;64.23
62402;BME280;48440;51.224;22.506;2023-10-31T05:23:02;97824.47;;;13.79;64.33
62402;BME280;48440;51.224;22.506;2023-10-31T05:25:28;97830.09;;;13.83;64.37
62402;BME280;48440;51.224;22.506;2023-10-31T05:27:53;97832.53;;;13.84;64.18
62402;BME280;48440;51.224;22.506;2023-10-31T05:30:19;97830.09;;;13.83;64.11
62402;BME280;48440;51.224;22.506;2023-10-31T05:32:44;97835.25;;;13.84;63.67
62402;BME280;48440;51.224;22.506;2023-10-31T05:35:10;97818.88;;;13.84;63.56
62402;BME280;48440;51.224;22.506;2023-10-31T05:37:36;97824.53;;;13.88;63.83
62402;BME280;48440;51.224;22.506;2023-10-31T05:40:02;97822.28;;;13.90;63.33
62402;BME280;48440;51.224;22.506;2023-10-31T05:42:27;97814.13;;;13.90;63.43
62402;BME280;48440;51.224;22.506;2023-10-31T05:44:54;97807.25;;;13.92;63.13
62402;BME280;48440;51.224;22.506;2023-10-31T05:47:20;97815.78;;;14.00;62.19
62402;BME280;48440;51.224;22.506;2023-10-31T05:49:46;97807.94;;;14.07;61.19
62402;BME280;48440;51.224;22.506;2023-10-31T05:52:11;97816.31;;;14.10;61.24
62402;BME280;48440;51.224;22.506;2023-10-31T05:54:37;97812.66;;;14.15;60.88
62402;BME280;48440;51.224;22.506;2023-10-31T05:57:05;97834.66;;;14.18;60.76
62402;BME280;48440;51.224;22.506;2023-10-31T05:59:31;97809.66;;;14.25;59.86
62402;BME280;48440;51.224;22.506;2023-10-31T06:01:57;97811.91;;;14.32;59.17
62402;BME280;48440;51.224;22.506;2023-10-31T06:04:23;97810.66;;;14.38;58.85
62402;BME280;48440;51.224;22.506;2023-10-31T06:06:50;97799.00;;;14.46;58.12
62402;BME280;48440;51.224;22.506;2023-10-31T06:09:16;97805.75;;;14.48;57.71
62402;BME280;48440;51.224;22.506;2023-10-31T06:11:42;97800.47;;;14.52;57.81
62402;BME280;48440;51.224;22.506;2023-10-31T06:14:08;97807.69;;;14.56;57.41
62402;BME280;48440;51.224;22.506;2023-10-31T06:16:40;97798.06;;;14.59;57.15
62402;BME280;48440;51.224;22.506;2023-10-31T06:19:06;97807.41;;;14.67;56.83
62402;BME280;48440;51.224;22.506;2023-10-31T06:21:32;97811.13;;;14.71;57.30
62402;BME280;48440;51.224;22.506;2023-10-31T06:23:57;97807.28;;;14.72;57.24
62402;BME280;48440;51.224;22.506;2023-10-31T06:26:23;97816.75;;;14.74;56.79
62402;BME280;48440;51.224;22.506;2023-10-31T06:28:48;97816.94;;;14.78;56.18
62402;BME280;48440;51.224;22.506;2023-10-31T06:31:13;97818.38;;;14.84;56.36
62402;BME280;48440;51.224;22.506;2023-10-31T06:33:39;97804.41;;;14.85;56.04
62402;BME280;48440;51.224;22.506;2023-10-31T06:36:05;97800.72;;;14.90;55.25
62402;BME280;48440;51.224;22.506;2023-10-31T06:38:31;97801.88;;;14.98;55.57
62402;BME280;48440;51.224;22.506;2023-10-31T06:40:57;97798.19;;;15.02;55.56
62402;BME280;48440;51.224;22.506;2023-10-31T06:43:22;97791.41;;;15.08;54.76
62402;BME280;48440;51.224;22.506;2023-10-31T06:45:48;97789.50;;;15.09;55.43
62402;BME280;48440;51.224;22.506;2023-10-31T06:48:13;97796.88;;;15.08;55.72
62402;BME280;48440;51.224;22.506;2023-10-31T06:50:39;97780.50;;;15.08;55.34
62402;BME280;48440;51.224;22.506;2023-10-31T06:53:04;97779.69;;;15.08;54.65
62402;BME280;48440;51.224;22.506;2023-10-31T06:55:29;97781.28;;;15.09;54.45
62402;BME280;48440;51.224;22.506;2023-10-31T06:57:55;97776.16;;;15.16;53.99
62402;BME280;48440;51.224;22.506;2023-10-31T07:00:20;97773.91;;;15.18;54.46
62402;BME280;48440;51.224;22.506;2023-10-31T07:02:46;97777.13;;;15.20;53.75
62402;BME280;48440;51.224;22.506;2023-10-31T07:05:13;97775.38;;;15.24;53.86
62402;BME280;48440;51.224;22.506;2023-10-31T07:07:39;97774.25;;;15.25;54.11
62402;BME280;48440;51.224;22.506;2023-10-31T07:10:05;97775.38;;;15.24;54.38
62402;BME280;48440;51.224;22.506;2023-10-31T07:12:31;97773.75;;;15.23;53.78
62402;BME280;48440;51.224;22.506;2023-10-31T07:14:56;97777.78;;;15.25;53.60
62402;BME280;48440;51.224;22.506;2023-10-31T07:17:24;97775.53;;;15.27;53.74
62402;BME280;48440;51.224;22.506;2023-10-31T07:19:50;97767.66;;;15.26;53.95
62402;BME280;48440;51.224;22.506;2023-10-31T07:22:15;97762.03;;;15.22;54.16
62402;BME280;48440;51.224;22.506;2023-10-31T07:24:41;97770.22;;;15.22;53.54
62402;BME280;48440;51.224;22.506;2023-10-31T07:27:06;97764.44;;;15.24;53.47
62402;BME280;48440;51.224;22.506;2023-10-31T07:29:31;97753.50;;;15.24;54.13
62402;BME280;48440;51.224;22.506;2023-10-31T07:31:58;97752.72;;;15.23;53.61
62402;BME280;48440;51.224;22.506;2023-10-31T07:34:23;97759.94;;;15.28;53.50
62402;BME280;48440;51.224;22.506;2023-10-31T07:36:49;97763.00;;;15.26;54.16
62402;BME280;48440;51.224;22.506;2023-10-31T07:39:14;97748.69;;;15.21;54.15
62402;BME280;48440;51.224;22.506;2023-10-31T07:41:40;97755.59;;;15.18;54.17
62402;BME280;48440;51.224;22.506;2023-10-31T07:44:06;97757.53;;;15.18;54.23
62402;BME280;48440;51.224;22.506;2023-10-31T07:46:31;97759.63;;;15.21;53.86
62402;BME280;48440;51.224;22.506;2023-10-31T07:48:56;97741.78;;;15.23;53.88
62402;BME280;48440;51.224;22.506;2023-10-31T07:51:22;97748.38;;;15.22;54.13
62402;BME280;48440;51.224;22.506;2023-10-31T07:53:47;97741.13;;;15.26;53.32
62402;BME280;48440;51.224;22.506;2023-10-31T07:56:17;97736.47;;;15.27;53.92
62402;BME280;48440;51.224;22.506;2023-10-31T07:58:42;97731.66;;;15.33;53.50
62402;BME280;48440;51.224;22.506;2023-10-31T08:01:08;97735.81;;;15.39;52.85
62402;BME280;48440;51.224;22.506;2023-10-31T08:03:36;97731.94;;;15.40;53.26
62402;BME280;48440;51.224;22.506;2023-10-31T08:06:04;97727.94;;;15.37;52.82
62402;BME280;48440;51.224;22.506;2023-10-31T08:08:30;97710.41;;;15.38;52.78
62402;BME280;48440;51.224;22.506;2023-10-31T08:10:56;97724.38;;;15.45;52.33
62402;BME280;48440;51.224;22.506;2023-10-31T08:13:22;97721.00;;;15.48;52.25
62402;BME280;48440;51.224;22.506;2023-10-31T08:15:48;97717.16;;;15.49;52.39
62402;BME280;48440;51.224;22.506;2023-10-31T08:18:13;97699.94;;;15.49;52.04
62402;BME280;48440;51.224;22.506;2023-10-31T08:20:46;97702.34;;;15.50;51.94
62402;BME280;48440;51.224;22.506;2023-10-31T08:23:14;97705.41;;;15.49;51.95
62402;BME280;48440;51.224;22.506;2023-10-31T08:25:40;97696.88;;;15.50;52.21
62402;BME280;48440;51.224;22.506;2023-10-31T08:28:05;97696.56;;;15.52;52.11
62402;BME280;48440;51.224;22.506;2023-10-31T08:30:31;97693.19;;;15.55;52.20
62402;BME280;48440;51.224;22.506;2023-10-31T08:32:56;97695.31;;;15.58;51.46
62402;BME280;48440;51.224;22.506;2023-10-31T08:35:21;97694.78;;;15.65;51.62
62402;BME280;48440;51.224;22.506;2023-10-31T08:37:47;97704.09;;;15.64;51.28
62402;BME280;48440;51.224;22.506;2023-10-31T08:40:12;97688.50;;;15.64;51.87
62402;BME280;48440;51.224;22.506;2023-10-31T08:42:37;97684.97;;;15.64;51.71
62402;BME280;48440;51.224;22.506;2023-10-31T08:45:03;97689.00;;;15.66;51.58
62402;BME280;48440;51.224;22.506;2023-10-31T08:47:29;97680.94;;;15.70;51.40
62402;BME280;48440;51.224;22.506;2023-10-31T08:49:54;97673.53;;;15.70;50.98
62402;BME280;48440;51.224;22.506;2023-10-31T08:52:20;97683.16;;;15.76;50.49
62402;BME280;48440;51.224;22.506;2023-10-31T08:54:47;97686.22;;;15.83;50.16
62402;BME280;48440;51.224;22.506;2023-10-31T08:57:13;97684.06;;;15.89;50.23
62402;BME280;48440;51.224;22.506;2023-10-31T08:59:42;97689.53;;;15.98;49.89
62402;BME280;48440;51.224;22.506;2023-10-31T09:02:08;97685.19;;;15.97;50.46
62402;BME280;48440;51.224;22.506;2023-10-31T09:04:33;97678.91;;;15.96;50.77
62402;BME280;48440;51.224;22.506;2023-10-31T09:07:00;97682.78;;;15.95;50.08
62402;BME280;48440;51.224;22.506;2023-10-31T09:09:25;97675.19;;;16.01;49.40
62402;BME280;48440;51.224;22.506;2023-10-31T09:11:51;97681.78;;;16.00;50.10
62402;BME280;48440;51.224;22.506;2023-10-31T09:14:16;97686.47;;;15.99;50.39
62402;BME280;48440;51.224;22.506;2023-10-31T09:16:42;97681.47;;;16.01;50.26
62402;BME280;48440;51.224;22.506;2023-10-31T09:19:07;97681.31;;;15.98;50.98
62402;BME280;48440;51.224;22.506;2023-10-31T09:21:56;97677.63;;;15.93;51.03
62402;BME280;48440;51.224;22.506;2023-10-31T09:24:43;97696.94;;;15.97;51.11
62402;BME280;48440;51.224;22.506;2023-10-31T09:27:15;97690.50;;;15.93;51.45
62402;BME280;48440;51.224;22.506;2023-10-31T09:29:46;97679.88;;;15.91;51.93
62402;BME280;48440;51.224;22.506;2023-10-31T09:32:17;97679.88;;;15.91;51.87
62402;BME280;48440;51.224;22.506;2023-10-31T09:34:46;97682.28;;;15.93;52.05
62402;BME280;48440;51.224;22.506;2023-10-31T09:37:39;97680.84;;;15.95;52.24
62402;BME280;48440;51.224;22.506;2023-10-31T09:40:06;97686.47;;;15.99;51.77
62402;BME280;48440;51.224;22.506;2023-10-31T09:42:53;97688.06;;;16.00;52.27
62402;BME280;48440;51.224;22.506;2023-10-31T09:45:19;97689.53;;;15.98;52.00
62402;BME280;48440;51.224;22.506;2023-10-31T09:47:45;97698.84;;;15.97;52.04
62402;BME280;48440;51.224;22.506;2023-10-31T09:50:11;97695.78;;;15.98;52.68
62402;BME280;48440;51.224;22.506;2023-10-31T09:52:37;97691.44;;;15.97;52.63
62402;BME280;48440;51.224;22.506;2023-10-31T09:55:03;97697.25;;;15.95;52.21
62402;BME280;48440;51.224;22.506;2023-10-31T09:57:30;97686.31;;;15.95;52.15
62402;BME280;48440;51.224;22.506;2023-10-31T09:59:55;97691.94;;;15.99;52.15
62402;BME280;48440;51.224;22.506;2023-10-31T10:02:21;97702.22;;;16.02;51.92
62402;BME280;48440;51.224;22.506;2023-10-31T10:04:48;97700.75;;;16.05;51.77
62402;BME280;48440;51.224;22.506;2023-10-31T10:07:16;97709.28;;;16.03;52.11
62402;BME280;48440;51.224;22.506;2023-10-31T10:09:42;97703.81;;;16.03;52.18
62402;BME280;48440;51.224;22.506;2023-10-31T10:12:11;97704.16;;;16.02;52.20
62402;BME280;48440;51.224;22.506;2023-10-31T10:14:38;97701.41;;;16.02;52.14
62402;BME280;48440;51.224;22.506;2023-10-31T10:17:17;97720.25;;;16.03;52.06
62402;BME280;48440;51.224;22.506;2023-10-31T10:19:43;97719.44;;;16.03;52.48
62402;BME280;48440;51.224;22.506;2023-10-31T10:22:09;97729.44;;;15.99;52.89
62402;BME280;48440;51.224;22.506;2023-10-31T10:24:35;97723.47;;;15.97;52.16
62402;BME280;48440;51.224;22.506;2023-10-31T10:27:04;97721.22;;;15.99;52.76
62402;BME280;48440;51.224;22.506;2023-10-31T10:29:29;97713.34;;;15.97;52.60
62402;BME280;48440;51.224;22.506;2023-10-31T10:31:55;97699.66;;;15.97;52.71
62402;BME280;48440;51.224;22.506;2023-10-31T10:34:20;97689.84;;;15.96;52.67
62402;BME280;48440;51.224;22.506;2023-10-31T10:36:49;97678.25;;;15.99;52.28
62402;BME280;48440;51.224;22.506;2023-10-31T10:39:20;97685.34;;;16.00;52.78
62402;BME280;48440;51.224;22.506;2023-10-31T10:41:51;97684.06;;;15.98;52.52
62402;BME280;48440;51.224;22.506;2023-10-31T10:44:19;97692.41;;;16.01;52.67
62402;BME280;48440;51.224;22.506;2023-10-31T10:46:50;97697.56;;;16.03;52.76
62402;BME280;48440;51.224;22.506;2023-10-31T10:49:19;97691.75;;;16.04;52.37
62402;BME280;48440;51.224;22.506;2023-10-31T10:52:17;97708.16;;;16.04;52.64
62402;BME280;48440;51.224;22.506;2023-10-31T10:55:04;97714.28;;;16.01;52.67
62402;BME280;48440;51.224;22.506;2023-10-31T10:57:48;97712.84;;;16.04;52.61
62402;BME280;48440;51.224;22.506;2023-10-31T11:00:20;97704.97;;;16.02;52.74
62402;BME280;48440;51.224;22.506;2023-10-31T11:02:51;97707.38;;;16.04;53.06
62402;BME280;48440;51.224;22.506;2023-10-31T11:05:17;97711.84;;;16.08;52.88
62402;BME280;48440;51.224;22.506;2023-10-31T11:07:44;97702.31;;;16.14;53.25
62402;BME280;48440;51.224;22.506;2023-10-31T11:10:11;97705.66;;;16.20;52.71
62402;BME280;48440;51.224;22.506;2023-10-31T11:12:37;97715.63;;;16.24;52.54
62402;BME280;48440;51.224;22.506;2023-10-31T11:15:05;97712.25;;;16.27;52.51
62402;BME280;48440;51.224;22.506;2023-10-31T11:17:34;97721.56;;;16.35;53.01
62402;BME280;48440;51.224;22.506;2023-10-31T11:20:00;97712.28;;;16.48;52.45
62402;BME280;48440;51.224;22.506;2023-10-31T11:22:37;97716.81;;;16.74;51.19
62402;BME280;48440;51.224;22.506;2023-10-31T11:25:04;97706.59;;;17.04;50.44
62402;BME280;48440;51.224;22.506;2023-10-31T11:27:29;97708.06;;;17.22;50.18
62402;BME280;48440;51.224;22.506;2023-10-31T11:29:59;97704.66;;;17.25;50.11
62402;BME280;48440;51.224;22.506;2023-10-31T11:32:26;97703.25;;;17.19;50.51
62402;BME280;48440;51.224;22.506;2023-10-31T11:34:51;97698.66;;;17.11;50.99
62402;BME280;48440;51.224;22.506;2023-10-31T11:37:31;97695.13;;;17.10;50.39
62402;BME280;48440;51.224;22.506;2023-10-31T11:42:43;97692.25;;;17.07;51.64
62402;BME280;48440;51.224;22.506;2023-10-31T11:45:10;97699.84;;;17.01;51.68
62402;BME280;48440;51.224;22.506;2023-10-31T11:47:49;97700.19;;;17.00;51.36
62402;BME280;48440;51.224;22.506;2023-10-31T11:50:15;97691.50;;;16.98;51.91
62402;BME280;48440;51.224;22.506;2023-10-31T11:52:41;97694.56;;;16.96;52.10
62402;BME280;48440;51.224;22.506;2023-10-31T11:55:12;97695.91;;;16.90;52.06
62402;BME280;48440;51.224;22.506;2023-10-31T11:57:38;97693.97;;;16.90;52.37
62402;BME280;48440;51.224;22.506;2023-10-31T12:00:05;97683.38;;;16.89;52.37
62402;BME280;48440;51.224;22.506;2023-10-31T12:02:32;97690.44;;;16.90;52.39
62402;BME280;48440;51.224;22.506;2023-10-31T12:05:11;97685.88;;;16.94;52.46
62402;BME280;48440;51.224;22.506;2023-10-31T12:07:44;97681.69;;;16.96;53.01
62402;BME280;48440;51.224;22.506;2023-10-31T12:10:10;97687.97;;;16.97;52.99
62402;BME280;48440;51.224;22.506;2023-10-31T12:12:35;97688.09;;;17.01;53.02
62402;BME280;48440;51.224;22.506;2023-10-31T12:15:08;97694.38;;;17.01;53.14
62402;BME280;48440;51.224;22.506;2023-10-31T12:17:34;97690.03;;;17.00;52.76
62402;BME280;48440;51.224;22.506;2023-10-31T12:20:06;97687.63;;;16.99;53.52
62402;BME280;48440;51.224;22.506;2023-10-31T12:22:33;97675.53;;;17.00;53.50
62402;BME280;48440;51.224;22.506;2023-10-31T12:25:08;97686.81;;;16.98;53.97
62402;BME280;48440;51.224;22.506;2023-10-31T12:27:48;97681.00;;;17.00;54.12
62402;BME280;48440;51.224;22.506;2023-10-31T12:30:16;97680.22;;;16.99;54.18
62402;BME280;48440;51.224;22.506;2023-10-31T12:32:43;97675.19;;;17.01;54.32
62402;BME280;48440;51.224;22.506;2023-10-31T12:35:19;97674.72;;;16.99;54.30
62402;BME280;48440;51.224;22.506;2023-10-31T12:37:47;97687.97;;;16.97;54.84
62402;BME280;48440;51.224;22.506;2023-10-31T12:40:16;97685.88;;;16.94;55.41
62402;BME280;48440;51.224;22.506;2023-10-31T12:42:46;97697.50;;;16.91;55.75
62402;BME280;48440;51.224;22.506;2023-10-31T12:45:12;97695.47;;;16.88;55.93
62402;BME280;48440;51.224;22.506;2023-10-31T12:47:38;97700.47;;;16.86;56.02
62402;BME280;48440;51.224;22.506;2023-10-31T12:50:13;97709.69;;;16.81;56.18
62402;BME280;48440;51.224;22.506;2023-10-31T12:52:53;97706.47;;;16.79;56.71